sensor_id;sensor_type;location;lat;lon;timestamp;temperature;humidity
33803;DHT22;20110;53.120;5.786;2022-07-09T00:00:43;14.50;99.90
33803;DHT22;20110;53.120;5.786;2022-07-09T00:03:09;14.50;99.90
33803;DHT22;20110;53.120;5.786;2022-07-09T00:05:35;14.50;99.90
33803;DHT22;20110;53.120;5.786;2022-07-09T00:08:01;14.60;99.90
33803;DHT22;20110;53.120;5.786;2022-07-09T00:10:27;14.60;99.90
33803;DHT22;20110;53.120;5.786;2022-07-09T00:12:53;14.60;99.90
33803;DHT22;20110;53.120;5.786;2022-07-09T00:15:19;14.60;99.90
33803;DHT22;20110;53.120;5.786;2022-07-09T00:17:45;14.60;99.90
33803;DHT22;20110;53.120;5.786;2022-07-09T00:20:11;14.70;99.90
33803;DHT22;20110;53.120;5.786;2022-07-09T00:22:37;14.80;99.90
33803;DHT22;20110;53.120;5.786;2022-07-09T00:25:03;14.80;99.90
33803;DHT22;20110;53.120;5.786;2022-07-09T00:27:29;14.80;99.90
33803;DHT22;20110;53.120;5.786;2022-07-09T00:29:55;14.80;99.90
33803;DHT22;20110;53.120;5.786;2022-07-09T00:32:21;14.80;99.90
33803;DHT22;20110;53.120;5.786;2022-07-09T00:34:46;14.90;99.90
33803;DHT22;20110;53.120;5.786;2022-07-09T00:37:12;14.90;99.90
33803;DHT22;20110;53.120;5.786;2022-07-09T00:39:38;15.00;99.90
33803;DHT22;20110;53.120;5.786;2022-07-09T00:42:05;14.90;99.90
33803;DHT22;20110;53.120;5.786;2022-07-09T00:44:32;14.90;99.90
33803;DHT22;20110;53.120;5.786;2022-07-09T00:46:58;14.90;99.90
33803;DHT22;20110;53.120;5.786;2022-07-09T00:49:25;14.90;99.90
33803;DHT22;20110;53.120;5.786;2022-07-09T00:51:54;14.90;99.90
33803;DHT22;20110;53.120;5.786;2022-07-09T00:54:22;14.90;99.90
33803;DHT22;20110;53.120;5.786;2022-07-09T00:56:50;15.00;99.90
33803;DHT22;20110;53.120;5.786;2022-07-09T00:59:18;15.00;99.90
33803;DHT22;20110;53.120;5.786;2022-07-09T01:01:44;14.90;99.90
33803;DHT22;20110;53.120;5.786;2022-07-09T01:04:09;15.00;99.90
33803;DHT22;20110;53.120;5.786;2022-07-09T01:06:35;15.00;99.90
33803;DHT22;20110;53.120;5.786;2022-07-09T01:09:02;15.00;99.90
33803;DHT22;20110;53.120;5.786;2022-07-09T01:11:29;15.10;99.90
33803;DHT22;20110;53.120;5.786;2022-07-09T01:13:55;15.10;99.90
33803;DHT22;20110;53.120;5.786;2022-07-09T01:16:21;15.10;99.90
33803;DHT22;20110;53.120;5.786;2022-07-09T01:18:47;15.00;99.90
33803;DHT22;20110;53.120;5.786;2022-07-09T01:21:14;15.10;99.90
33803;DHT22;20110;53.120;5.786;2022-07-09T01:23:40;15.10;99.90
33803;DHT22;20110;53.120;5.786;2022-07-09T01:26:06;15.10;99.90
33803;DHT22;20110;53.120;5.786;2022-07-09T01:28:33;15.10;99.90
33803;DHT22;20110;53.120;5.786;2022-07-09T01:30:58;15.10;99.90
33803;DHT22;20110;53.120;5.786;2022-07-09T01:33:25;15.10;99.90
33803;DHT22;20110;53.120;5.786;2022-07-09T01:35:51;15.00;99.90
33803;DHT22;20110;53.120;5.786;2022-07-09T01:38:17;15.00;99.90
33803;DHT22;20110;53.120;5.786;2022-07-09T01:40:43;15.10;99.90
33803;DHT22;20110;53.120;5.786;2022-07-09T01:43:09;15.10;99.90
33803;DHT22;20110;53.120;5.786;2022-07-09T01:45:34;15.00;99.90
33803;DHT22;20110;53.120;5.786;2022-07-09T01:48:00;15.00;99.90
33803;DHT22;20110;53.120;5.786;2022-07-09T01:50:26;14.90;99.90
33803;DHT22;20110;53.120;5.786;2022-07-09T01:52:52;14.90;99.90
33803;DHT22;20110;53.120;5.786;2022-07-09T01:55:18;14.90;99.90
33803;DHT22;20110;53.120;5.786;2022-07-09T01:57:44;14.80;99.90
33803;DHT22;20110;53.120;5.786;2022-07-09T02:00:10;14.80;99.90
33803;DHT22;20110;53.120;5.786;2022-07-09T02:02:36;14.80;99.90
33803;DHT22;20110;53.120;5.786;2022-07-09T02:05:02;14.80;99.90
33803;DHT22;20110;53.120;5.786;2022-07-09T02:07:29;14.70;99.90
33803;DHT22;20110;53.120;5.786;2022-07-09T02:09:54;14.70;99.90
33803;DHT22;20110;53.120;5.786;2022-07-09T02:12:20;14.70;99.90
33803;DHT22;20110;53.120;5.786;2022-07-09T02:14:46;14.60;99.90
33803;DHT22;20110;53.120;5.786;2022-07-09T02:17:13;14.60;99.90
33803;DHT22;20110;53.120;5.786;2022-07-09T02:19:38;14.60;99.90
33803;DHT22;20110;53.120;5.786;2022-07-09T02:22:04;14.60;99.90
33803;DHT22;20110;53.120;5.786;2022-07-09T02:24:31;14.50;99.90
33803;DHT22;20110;53.120;5.786;2022-07-09T02:26:56;14.50;99.90
33803;DHT22;20110;53.120;5.786;2022-07-09T02:29:22;14.60;99.90
33803;DHT22;20110;53.120;5.786;2022-07-09T02:31:48;14.70;99.90
33803;DHT22;20110;53.120;5.786;2022-07-09T02:34:13;14.60;99.90
33803;DHT22;20110;53.120;5.786;2022-07-09T02:36:39;14.70;99.90
33803;DHT22;20110;53.120;5.786;2022-07-09T02:39:05;14.70;99.90
33803;DHT22;20110;53.120;5.786;2022-07-09T02:41:31;14.50;99.90
33803;DHT22;20110;53.120;5.786;2022-07-09T02:43:56;14.50;99.90
33803;DHT22;20110;53.120;5.786;2022-07-09T02:46:22;14.50;99.90
33803;DHT22;20110;53.120;5.786;2022-07-09T02:48:48;14.50;99.90
33803;DHT22;20110;53.120;5.786;2022-07-09T02:51:14;14.50;99.90
33803;DHT22;20110;53.120;5.786;2022-07-09T02:53:39;14.50;99.90
33803;DHT22;20110;53.120;5.786;2022-07-09T02:56:05;14.40;99.90
33803;DHT22;20110;53.120;5.786;2022-07-09T02:58:32;14.40;99.90
33803;DHT22;20110;53.120;5.786;2022-07-09T03:00:57;14.40;99.90
33803;DHT22;20110;53.120;5.786;2022-07-09T03:03:23;14.40;99.90
33803;DHT22;20110;53.120;5.786;2022-07-09T03:05:49;14.40;99.90
33803;DHT22;20110;53.120;5.786;2022-07-09T03:08:15;14.40;99.90
33803;DHT22;20110;53.120;5.786;2022-07-09T03:10:41;14.40;99.90
33803;DHT22;20110;53.120;5.786;2022-07-09T03:13:07;14.40;99.90
33803;DHT22;20110;53.120;5.786;2022-07-09T03:15:33;14.40;99.90
33803;DHT22;20110;53.120;5.786;2022-07-09T03:17:58;14.30;99.90
33803;DHT22;20110;53.120;5.786;2022-07-09T03:20:24;14.30;99.90
33803;DHT22;20110;53.120;5.786;2022-07-09T03:22:50;14.20;99.90
33803;DHT22;20110;53.120;5.786;2022-07-09T03:25:17;14.20;99.90
33803;DHT22;20110;53.120;5.786;2022-07-09T03:27:42;14.20;99.90
33803;DHT22;20110;53.120;5.786;2022-07-09T03:30:09;14.20;99.90
33803;DHT22;20110;53.120;5.786;2022-07-09T03:32:36;14.20;99.90
33803;DHT22;20110;53.120;5.786;2022-07-09T03:35:02;14.20;99.90
33803;DHT22;20110;53.120;5.786;2022-07-09T03:37:28;14.30;99.90
33803;DHT22;20110;53.120;5.786;2022-07-09T03:39:54;14.30;99.90
33803;DHT22;20110;53.120;5.786;2022-07-09T03:42:19;14.40;99.90
33803;DHT22;20110;53.120;5.786;2022-07-09T03:44:45;14.40;99.90
33803;DHT22;20110;53.120;5.786;2022-07-09T03:47:11;14.40;99.90
33803;DHT22;20110;53.120;5.786;2022-07-09T03:49:36;14.30;99.90
33803;DHT22;20110;53.120;5.786;2022-07-09T03:52:02;14.40;99.90
33803;DHT22;20110;53.120;5.786;2022-07-09T03:54:28;14.40;99.90
33803;DHT22;20110;53.120;5.786;2022-07-09T03:56:54;14.30;99.90
33803;DHT22;20110;53.120;5.786;2022-07-09T03:59:20;14.30;99.90
33803;DHT22;20110;53.120;5.786;2022-07-09T04:01:46;14.30;99.90
33803;DHT22;20110;53.120;5.786;2022-07-09T04:04:12;14.30;99.90
33803;DHT22;20110;53.120;5.786;2022-07-09T04:06:38;14.30;99.90
33803;DHT22;20110;53.120;5.786;2022-07-09T04:09:04;14.30;99.90
33803;DHT22;20110;53.120;5.786;2022-07-09T04:11:31;14.30;99.90
33803;DHT22;20110;53.120;5.786;2022-07-09T04:13:58;14.30;99.90
33803;DHT22;20110;53.120;5.786;2022-07-09T04:16:25;14.30;99.90
33803;DHT22;20110;53.120;5.786;2022-07-09T04:18:50;14.30;99.90
33803;DHT22;20110;53.120;5.786;2022-07-09T04:21:16;14.30;99.90
33803;DHT22;20110;53.120;5.786;2022-07-09T04:23:42;14.30;99.90
33803;DHT22;20110;53.120;5.786;2022-07-09T04:26:09;14.30;99.90
33803;DHT22;20110;53.120;5.786;2022-07-09T04:28:38;14.30;99.90
33803;DHT22;20110;53.120;5.786;2022-07-09T04:31:04;14.30;99.90
33803;DHT22;20110;53.120;5.786;2022-07-09T04:33:29;14.30;99.90
33803;DHT22;20110;53.120;5.786;2022-07-09T04:35:55;14.30;99.90
33803;DHT22;20110;53.120;5.786;2022-07-09T04:38:21;14.40;99.90
33803;DHT22;20110;53.120;5.786;2022-07-09T04:40:47;14.50;99.90
33803;DHT22;20110;53.120;5.786;2022-07-09T04:43:13;14.60;99.90
33803;DHT22;20110;53.120;5.786;2022-07-09T04:45:38;14.70;99.90
33803;DHT22;20110;53.120;5.786;2022-07-09T04:48:04;14.70;99.90
33803;DHT22;20110;53.120;5.786;2022-07-09T04:50:30;14.80;99.90
33803;DHT22;20110;53.120;5.786;2022-07-09T04:52:56;14.90;99.90
33803;DHT22;20110;53.120;5.786;2022-07-09T04:55:22;14.90;99.90
33803;DHT22;20110;53.120;5.786;2022-07-09T04:57:48;15.00;99.90
33803;DHT22;20110;53.120;5.786;2022-07-09T05:00:15;15.00;99.90
33803;DHT22;20110;53.120;5.786;2022-07-09T05:02:42;15.20;99.90
33803;DHT22;20110;53.120;5.786;2022-07-09T05:05:09;15.30;99.90
33803;DHT22;20110;53.120;5.786;2022-07-09T05:07:36;15.40;99.90
33803;DHT22;20110;53.120;5.786;2022-07-09T05:10:02;15.40;99.90
33803;DHT22;20110;53.120;5.786;2022-07-09T05:12:30;15.50;99.90
33803;DHT22;20110;53.120;5.786;2022-07-09T05:14:56;15.50;99.90
33803;DHT22;20110;53.120;5.786;2022-07-09T05:17:23;15.60;99.90
33803;DHT22;20110;53.120;5.786;2022-07-09T05:19:49;15.60;99.90
33803;DHT22;20110;53.120;5.786;2022-07-09T05:22:15;15.70;99.90
33803;DHT22;20110;53.120;5.786;2022-07-09T05:24:41;15.70;99.90
33803;DHT22;20110;53.120;5.786;2022-07-09T05:27:07;15.80;99.90
33803;DHT22;20110;53.120;5.786;2022-07-09T05:29:35;15.80;99.90
33803;DHT22;20110;53.120;5.786;2022-07-09T05:32:02;15.80;99.90
33803;DHT22;20110;53.120;5.786;2022-07-09T05:34:28;16.00;99.90
33803;DHT22;20110;53.120;5.786;2022-07-09T05:36:54;16.00;99.90
33803;DHT22;20110;53.120;5.786;2022-07-09T05:39:21;16.10;99.90
33803;DHT22;20110;53.120;5.786;2022-07-09T05:41:47;16.10;99.90
33803;DHT22;20110;53.120;5.786;2022-07-09T05:44:13;16.20;99.90
33803;DHT22;20110;53.120;5.786;2022-07-09T05:46:40;16.40;99.90
33803;DHT22;20110;53.120;5.786;2022-07-09T05:49:06;16.30;99.90
33803;DHT22;20110;53.120;5.786;2022-07-09T05:51:32;16.30;99.90
33803;DHT22;20110;53.120;5.786;2022-07-09T05:53:58;16.40;99.90
33803;DHT22;20110;53.120;5.786;2022-07-09T05:56:24;16.50;99.90
33803;DHT22;20110;53.120;5.786;2022-07-09T05:58:50;16.50;99.90
33803;DHT22;20110;53.120;5.786;2022-07-09T06:01:16;16.60;99.90
33803;DHT22;20110;53.120;5.786;2022-07-09T06:03:42;16.60;99.90
33803;DHT22;20110;53.120;5.786;2022-07-09T06:06:09;16.60;99.90
33803;DHT22;20110;53.120;5.786;2022-07-09T06:08:35;16.60;99.90
33803;DHT22;20110;53.120;5.786;2022-07-09T06:11:02;16.60;99.90
33803;DHT22;20110;53.120;5.786;2022-07-09T06:13:28;16.70;99.90
33803;DHT22;20110;53.120;5.786;2022-07-09T06:15:54;16.70;99.90
33803;DHT22;20110;53.120;5.786;2022-07-09T06:18:21;16.70;99.90
33803;DHT22;20110;53.120;5.786;2022-07-09T06:20:48;16.80;99.90
33803;DHT22;20110;53.120;5.786;2022-07-09T06:23:13;16.80;99.90
33803;DHT22;20110;53.120;5.786;2022-07-09T06:25:40;16.90;99.90
33803;DHT22;20110;53.120;5.786;2022-07-09T06:28:06;17.00;99.90
33803;DHT22;20110;53.120;5.786;2022-07-09T06:30:33;17.00;99.90
33803;DHT22;20110;53.120;5.786;2022-07-09T06:33:00;17.10;99.90
33803;DHT22;20110;53.120;5.786;2022-07-09T06:35:26;17.10;99.90
33803;DHT22;20110;53.120;5.786;2022-07-09T06:37:52;17.20;99.90
33803;DHT22;20110;53.120;5.786;2022-07-09T06:40:17;17.10;99.90
33803;DHT22;20110;53.120;5.786;2022-07-09T06:42:43;17.20;99.90
33803;DHT22;20110;53.120;5.786;2022-07-09T06:45:09;17.40;99.90
33803;DHT22;20110;53.120;5.786;2022-07-09T06:47:36;17.50;99.90
33803;DHT22;20110;53.120;5.786;2022-07-09T06:50:02;17.40;99.90
33803;DHT22;20110;53.120;5.786;2022-07-09T06:52:28;17.40;99.90
33803;DHT22;20110;53.120;5.786;2022-07-09T06:54:54;17.40;99.90
33803;DHT22;20110;53.120;5.786;2022-07-09T06:57:20;17.40;99.90
33803;DHT22;20110;53.120;5.786;2022-07-09T06:59:46;17.40;99.90
33803;DHT22;20110;53.120;5.786;2022-07-09T07:02:12;17.40;99.90
33803;DHT22;20110;53.120;5.786;2022-07-09T07:04:38;17.40;99.90
33803;DHT22;20110;53.120;5.786;2022-07-09T07:07:04;17.50;99.90
33803;DHT22;20110;53.120;5.786;2022-07-09T07:09:30;17.50;99.90
33803;DHT22;20110;53.120;5.786;2022-07-09T07:11:57;17.60;99.90
33803;DHT22;20110;53.120;5.786;2022-07-09T07:14:23;17.60;99.90
33803;DHT22;20110;53.120;5.786;2022-07-09T07:16:50;17.50;99.90
33803;DHT22;20110;53.120;5.786;2022-07-09T07:19:16;17.60;99.90
33803;DHT22;20110;53.120;5.786;2022-07-09T07:21:43;17.70;99.90
33803;DHT22;20110;53.120;5.786;2022-07-09T07:24:09;17.70;99.90
33803;DHT22;20110;53.120;5.786;2022-07-09T07:26:35;17.60;99.90
33803;DHT22;20110;53.120;5.786;2022-07-09T07:29:01;17.40;99.90
33803;DHT22;20110;53.120;5.786;2022-07-09T07:31:27;17.40;99.90
33803;DHT22;20110;53.120;5.786;2022-07-09T07:33:53;17.60;99.90
33803;DHT22;20110;53.120;5.786;2022-07-09T07:36:19;17.60;99.90
33803;DHT22;20110;53.120;5.786;2022-07-09T07:38:44;17.80;99.90
33803;DHT22;20110;53.120;5.786;2022-07-09T07:41:11;18.00;99.90
33803;DHT22;20110;53.120;5.786;2022-07-09T07:43:38;18.10;99.90
33803;DHT22;20110;53.120;5.786;2022-07-09T07:46:04;18.20;99.90
33803;DHT22;20110;53.120;5.786;2022-07-09T07:48:30;18.40;99.90
33803;DHT22;20110;53.120;5.786;2022-07-09T07:50:57;18.40;99.90
33803;DHT22;20110;53.120;5.786;2022-07-09T07:53:23;18.60;99.90
33803;DHT22;20110;53.120;5.786;2022-07-09T07:55:49;18.60;99.90
33803;DHT22;20110;53.120;5.786;2022-07-09T07:58:15;18.50;99.90
33803;DHT22;20110;53.120;5.786;2022-07-09T08:00:41;18.30;99.90
33803;DHT22;20110;53.120;5.786;2022-07-09T08:03:07;18.40;99.90
33803;DHT22;20110;53.120;5.786;2022-07-09T08:05:33;18.30;99.90
33803;DHT22;20110;53.120;5.786;2022-07-09T08:07:59;18.20;99.90
33803;DHT22;20110;53.120;5.786;2022-07-09T08:10:25;18.40;99.90
33803;DHT22;20110;53.120;5.786;2022-07-09T08:12:51;18.40;99.90
33803;DHT22;20110;53.120;5.786;2022-07-09T08:15:17;18.80;99.90
33803;DHT22;20110;53.120;5.786;2022-07-09T08:17:43;19.10;99.90
33803;DHT22;20110;53.120;5.786;2022-07-09T08:20:10;19.10;99.90
33803;DHT22;20110;53.120;5.786;2022-07-09T08:22:36;19.30;99.90
33803;DHT22;20110;53.120;5.786;2022-07-09T08:25:03;19.30;99.90
33803;DHT22;20110;53.120;5.786;2022-07-09T08:27:30;19.40;99.90
33803;DHT22;20110;53.120;5.786;2022-07-09T08:29:55;19.40;99.90
33803;DHT22;20110;53.120;5.786;2022-07-09T08:32:21;19.40;99.90
33803;DHT22;20110;53.120;5.786;2022-07-09T08:34:47;19.50;99.90
33803;DHT22;20110;53.120;5.786;2022-07-09T08:37:12;19.80;99.90
33803;DHT22;20110;53.120;5.786;2022-07-09T08:39:38;19.90;99.90
33803;DHT22;20110;53.120;5.786;2022-07-09T08:42:09;19.80;99.90
33803;DHT22;20110;53.120;5.786;2022-07-09T08:44:38;19.70;99.90
33803;DHT22;20110;53.120;5.786;2022-07-09T08:47:05;19.40;99.90
33803;DHT22;20110;53.120;5.786;2022-07-09T08:49:32;19.50;99.90
33803;DHT22;20110;53.120;5.786;2022-07-09T08:51:58;19.60;99.90
33803;DHT22;20110;53.120;5.786;2022-07-09T08:54:24;19.70;99.90
33803;DHT22;20110;53.120;5.786;2022-07-09T08:56:53;19.90;99.90
33803;DHT22;20110;53.120;5.786;2022-07-09T08:59:19;19.90;99.90
33803;DHT22;20110;53.120;5.786;2022-07-09T09:01:45;19.70;99.90
33803;DHT22;20110;53.120;5.786;2022-07-09T09:04:11;19.80;99.90
33803;DHT22;20110;53.120;5.786;2022-07-09T09:06:38;19.60;99.90
33803;DHT22;20110;53.120;5.786;2022-07-09T09:09:07;19.50;99.90
33803;DHT22;20110;53.120;5.786;2022-07-09T09:11:34;19.60;99.90
33803;DHT22;20110;53.120;5.786;2022-07-09T09:14:02;19.60;99.90
33803;DHT22;20110;53.120;5.786;2022-07-09T09:16:29;19.90;99.90
33803;DHT22;20110;53.120;5.786;2022-07-09T09:18:55;19.90;99.90
33803;DHT22;20110;53.120;5.786;2022-07-09T09:21:25;20.00;99.90
33803;DHT22;20110;53.120;5.786;2022-07-09T09:23:52;20.00;99.90
33803;DHT22;20110;53.120;5.786;2022-07-09T09:26:27;20.00;99.90
33803;DHT22;20110;53.120;5.786;2022-07-09T09:29:02;19.90;99.90
33803;DHT22;20110;53.120;5.786;2022-07-09T09:31:34;20.10;99.90
33803;DHT22;20110;53.120;5.786;2022-07-09T09:34:11;20.20;99.90
33803;DHT22;20110;53.120;5.786;2022-07-09T09:39:20;20.70;99.90
33803;DHT22;20110;53.120;5.786;2022-07-09T09:41:53;20.80;99.90
33803;DHT22;20110;53.120;5.786;2022-07-09T09:44:25;20.70;99.90
33803;DHT22;20110;53.120;5.786;2022-07-09T09:46:54;20.80;99.90
33803;DHT22;20110;53.120;5.786;2022-07-09T09:49:21;20.80;99.90
33803;DHT22;20110;53.120;5.786;2022-07-09T09:54:20;20.80;99.90
33803;DHT22;20110;53.120;5.786;2022-07-09T09:56:47;20.80;99.90
33803;DHT22;20110;53.120;5.786;2022-07-09T09:59:15;21.00;99.90
33803;DHT22;20110;53.120;5.786;2022-07-09T10:01:43;21.10;99.90
33803;DHT22;20110;53.120;5.786;2022-07-09T10:04:10;21.10;99.90
33803;DHT22;20110;53.120;5.786;2022-07-09T10:06:38;21.40;99.90
33803;DHT22;20110;53.120;5.786;2022-07-09T10:09:07;21.50;99.90
33803;DHT22;20110;53.120;5.786;2022-07-09T10:11:46;21.80;99.90
33803;DHT22;20110;53.120;5.786;2022-07-09T10:16:54;21.30;99.90
33803;DHT22;20110;53.120;5.786;2022-07-09T10:19:25;20.50;99.90
33803;DHT22;20110;53.120;5.786;2022-07-09T10:21:56;19.20;99.90
33803;DHT22;20110;53.120;5.786;2022-07-09T10:24:29;18.10;99.90
33803;DHT22;20110;53.120;5.786;2022-07-09T10:27:10;17.50;99.90
33803;DHT22;20110;53.120;5.786;2022-07-09T10:29:56;17.10;99.90
33803;DHT22;20110;53.120;5.786;2022-07-09T10:32:27;16.90;99.90
33803;DHT22;20110;53.120;5.786;2022-07-09T10:35:04;16.90;99.90
33803;DHT22;20110;53.120;5.786;2022-07-09T10:37:44;16.80;99.90
33803;DHT22;20110;53.120;5.786;2022-07-09T10:40:17;16.80;99.90
33803;DHT22;20110;53.120;5.786;2022-07-09T10:42:58;16.70;99.90
33803;DHT22;20110;53.120;5.786;2022-07-09T10:45:44;16.70;99.90
33803;DHT22;20110;53.120;5.786;2022-07-09T10:48:14;16.70;99.90
33803;DHT22;20110;53.120;5.786;2022-07-09T10:50:43;17.00;99.90
33803;DHT22;20110;53.120;5.786;2022-07-09T10:53:12;17.00;99.90
33803;DHT22;20110;53.120;5.786;2022-07-09T10:55:42;17.10;99.90
33803;DHT22;20110;53.120;5.786;2022-07-09T10:58:18;17.40;99.90
33803;DHT22;20110;53.120;5.786;2022-07-09T11:00:57;18.00;99.90
33803;DHT22;20110;53.120;5.786;2022-07-09T11:03:29;18.20;99.90
33803;DHT22;20110;53.120;5.786;2022-07-09T11:05:56;18.30;99.90
33803;DHT22;20110;53.120;5.786;2022-07-09T11:08:24;18.50;99.90
33803;DHT22;20110;53.120;5.786;2022-07-09T11:10:50;18.50;99.90
33803;DHT22;20110;53.120;5.786;2022-07-09T11:13:16;18.60;99.90
33803;DHT22;20110;53.120;5.786;2022-07-09T11:15:41;18.60;99.90
33803;DHT22;20110;53.120;5.786;2022-07-09T11:18:09;18.50;99.90
33803;DHT22;20110;53.120;5.786;2022-07-09T11:20:44;18.70;99.90
33803;DHT22;20110;53.120;5.786;2022-07-09T11:23:12;19.20;99.90
33803;DHT22;20110;53.120;5.786;2022-07-09T11:25:39;19.10;99.90
33803;DHT22;20110;53.120;5.786;2022-07-09T11:28:05;19.30;99.90
33803;DHT22;20110;53.120;5.786;2022-07-09T11:30:31;19.20;99.90
33803;DHT22;20110;53.120;5.786;2022-07-09T11:32:58;18.90;99.90
33803;DHT22;20110;53.120;5.786;2022-07-09T11:35:33;19.30;99.90
33803;DHT22;20110;53.120;5.786;2022-07-09T11:38:02;19.90;99.90
33803;DHT22;20110;53.120;5.786;2022-07-09T11:40:29;20.10;99.90
33803;DHT22;20110;53.120;5.786;2022-07-09T11:42:56;20.20;99.90
33803;DHT22;20110;53.120;5.786;2022-07-09T11:45:27;20.20;99.90
33803;DHT22;20110;53.120;5.786;2022-07-09T11:48:10;20.60;99.90
33803;DHT22;20110;53.120;5.786;2022-07-09T11:50:45;20.80;99.90
33803;DHT22;20110;53.120;5.786;2022-07-09T11:53:24;20.80;99.90
33803;DHT22;20110;53.120;5.786;2022-07-09T11:56:00;20.80;99.90
33803;DHT22;20110;53.120;5.786;2022-07-09T11:58:27;20.50;99.90
33803;DHT22;20110;53.120;5.786;2022-07-09T12:00:53;20.50;99.90
33803;DHT22;20110;53.120;5.786;2022-07-09T12:03:26;20.70;99.90
33803;DHT22;20110;53.120;5.786;2022-07-09T12:05:53;20.50;99.90
33803;DHT22;20110;53.120;5.786;2022-07-09T12:08:29;20.40;99.90
33803;DHT22;20110;53.120;5.786;2022-07-09T12:10:57;20.40;99.90
33803;DHT22;20110;53.120;5.786;2022-07-09T12:13:24;20.60;99.90
33803;DHT22;20110;53.120;5.786;2022-07-09T12:15:50;20.20;99.90
33803;DHT22;20110;53.120;5.786;2022-07-09T12:18:16;20.30;99.90
33803;DHT22;20110;53.120;5.786;2022-07-09T12:20:42;20.60;99.90
33803;DHT22;20110;53.120;5.786;2022-07-09T12:23:08;20.30;99.90
33803;DHT22;20110;53.120;5.786;2022-07-09T12:25:34;20.50;99.90
33803;DHT22;20110;53.120;5.786;2022-07-09T12:27:59;20.40;99.90
33803;DHT22;20110;53.120;5.786;2022-07-09T12:30:25;20.40;99.90
33803;DHT22;20110;53.120;5.786;2022-07-09T12:32:51;21.10;99.90
33803;DHT22;20110;53.120;5.786;2022-07-09T12:35:17;21.30;99.90
33803;DHT22;20110;53.120;5.786;2022-07-09T12:37:44;21.50;99.90
33803;DHT22;20110;53.120;5.786;2022-07-09T12:40:10;21.10;99.90
33803;DHT22;20110;53.120;5.786;2022-07-09T12:42:38;20.40;99.90
33803;DHT22;20110;53.120;5.786;2022-07-09T12:45:05;20.00;99.90
33803;DHT22;20110;53.120;5.786;2022-07-09T12:47:31;19.40;99.90
33803;DHT22;20110;53.120;5.786;2022-07-09T12:49:57;19.50;99.90
33803;DHT22;20110;53.120;5.786;2022-07-09T12:52:30;20.00;99.90
33803;DHT22;20110;53.120;5.786;2022-07-09T12:55:07;20.30;99.90
33803;DHT22;20110;53.120;5.786;2022-07-09T12:57:33;20.00;99.90
33803;DHT22;20110;53.120;5.786;2022-07-09T12:59:59;20.10;99.90
33803;DHT22;20110;53.120;5.786;2022-07-09T13:02:25;20.40;99.90
33803;DHT22;20110;53.120;5.786;2022-07-09T13:04:52;20.90;99.90
33803;DHT22;20110;53.120;5.786;2022-07-09T13:07:18;21.10;99.90
33803;DHT22;20110;53.120;5.786;2022-07-09T13:09:44;21.20;99.90
33803;DHT22;20110;53.120;5.786;2022-07-09T13:12:10;21.20;99.90
33803;DHT22;20110;53.120;5.786;2022-07-09T13:14:36;21.10;99.90
33803;DHT22;20110;53.120;5.786;2022-07-09T13:17:02;21.10;99.90
33803;DHT22;20110;53.120;5.786;2022-07-09T13:19:28;20.80;99.90
33803;DHT22;20110;53.120;5.786;2022-07-09T13:21:54;20.20;99.90
33803;DHT22;20110;53.120;5.786;2022-07-09T13:24:20;19.60;99.90
33803;DHT22;20110;53.120;5.786;2022-07-09T13:26:46;19.40;99.90
33803;DHT22;20110;53.120;5.786;2022-07-09T13:29:11;19.60;99.90
33803;DHT22;20110;53.120;5.786;2022-07-09T13:31:37;19.70;99.90
33803;DHT22;20110;53.120;5.786;2022-07-09T13:34:03;19.50;99.90
33803;DHT22;20110;53.120;5.786;2022-07-09T13:36:28;19.60;99.90
33803;DHT22;20110;53.120;5.786;2022-07-09T13:38:55;20.20;99.90
33803;DHT22;20110;53.120;5.786;2022-07-09T13:41:21;20.40;99.90
33803;DHT22;20110;53.120;5.786;2022-07-09T13:43:46;20.20;99.90
33803;DHT22;20110;53.120;5.786;2022-07-09T13:46:13;20.10;99.90
33803;DHT22;20110;53.120;5.786;2022-07-09T13:48:38;19.60;99.90
33803;DHT22;20110;53.120;5.786;2022-07-09T13:51:04;19.60;99.90
33803;DHT22;20110;53.120;5.786;2022-07-09T13:53:30;19.50;99.90
33803;DHT22;20110;53.120;5.786;2022-07-09T13:55:58;19.30;99.90
33803;DHT22;20110;53.120;5.786;2022-07-09T13:58:24;19.10;99.90
33803;DHT22;20110;53.120;5.786;2022-07-09T14:00:51;19.20;99.90
33803;DHT22;20110;53.120;5.786;2022-07-09T14:03:17;19.20;99.90
33803;DHT22;20110;53.120;5.786;2022-07-09T14:05:43;19.40;99.90
33803;DHT22;20110;53.120;5.786;2022-07-09T14:08:09;19.30;99.90
33803;DHT22;20110;53.120;5.786;2022-07-09T14:10:35;19.20;99.90
33803;DHT22;20110;53.120;5.786;2022-07-09T14:13:01;18.90;99.90
33803;DHT22;20110;53.120;5.786;2022-07-09T14:15:27;18.50;99.90
33803;DHT22;20110;53.120;5.786;2022-07-09T14:17:53;18.30;99.90
33803;DHT22;20110;53.120;5.786;2022-07-09T14:20:19;18.40;99.90
33803;DHT22;20110;53.120;5.786;2022-07-09T14:22:46;18.40;99.90
33803;DHT22;20110;53.120;5.786;2022-07-09T14:25:12;18.40;99.90
33803;DHT22;20110;53.120;5.786;2022-07-09T14:27:38;18.30;99.90
33803;DHT22;20110;53.120;5.786;2022-07-09T14:30:04;18.40;99.90
33803;DHT22;20110;53.120;5.786;2022-07-09T14:32:30;18.60;99.90
33803;DHT22;20110;53.120;5.786;2022-07-09T14:34:56;18.70;99.90
33803;DHT22;20110;53.120;5.786;2022-07-09T14:37:22;18.90;99.90
33803;DHT22;20110;53.120;5.786;2022-07-09T14:39:47;18.90;99.90
33803;DHT22;20110;53.120;5.786;2022-07-09T14:42:13;18.80;99.90
33803;DHT22;20110;53.120;5.786;2022-07-09T14:44:39;18.50;99.90
33803;DHT22;20110;53.120;5.786;2022-07-09T14:47:05;18.50;99.90
33803;DHT22;20110;53.120;5.786;2022-07-09T14:49:31;18.40;99.90
33803;DHT22;20110;53.120;5.786;2022-07-09T14:51:56;18.30;99.90
33803;DHT22;20110;53.120;5.786;2022-07-09T14:54:22;17.90;99.90
33803;DHT22;20110;53.120;5.786;2022-07-09T14:56:48;17.90;99.90
33803;DHT22;20110;53.120;5.786;2022-07-09T14:59:14;18.00;99.90
33803;DHT22;20110;53.120;5.786;2022-07-09T15:01:46;18.00;99.90
33803;DHT22;20110;53.120;5.786;2022-07-09T15:04:12;18.00;99.90
33803;DHT22;20110;53.120;5.786;2022-07-09T15:06:38;18.00;99.90
33803;DHT22;20110;53.120;5.786;2022-07-09T15:09:05;17.70;99.90
33803;DHT22;20110;53.120;5.786;2022-07-09T15:11:31;17.80;99.90
33803;DHT22;20110;53.120;5.786;2022-07-09T15:13:57;18.00;99.90
33803;DHT22;20110;53.120;5.786;2022-07-09T15:16:22;18.00;99.90
33803;DHT22;20110;53.120;5.786;2022-07-09T15:18:48;18.10;99.90
33803;DHT22;20110;53.120;5.786;2022-07-09T15:21:16;18.20;99.90
33803;DHT22;20110;53.120;5.786;2022-07-09T15:23:42;18.10;99.90
33803;DHT22;20110;53.120;5.786;2022-07-09T15:26:08;18.00;99.90
33803;DHT22;20110;53.120;5.786;2022-07-09T15:28:33;18.00;99.90
33803;DHT22;20110;53.120;5.786;2022-07-09T15:30:59;18.00;99.90
33803;DHT22;20110;53.120;5.786;2022-07-09T15:33:25;18.10;99.90
33803;DHT22;20110;53.120;5.786;2022-07-09T15:35:51;18.00;99.90